sensor_id;sensor_type;location;lat;lon;timestamp;temperature;humidity
70184;DHT22;57554;51.546;6.776;2022-09-09T00:01:28;17.10;71.10
70184;DHT22;57554;51.546;6.776;2022-09-09T00:06:30;17.10;71.10
70184;DHT22;57554;51.546;6.776;2022-09-09T00:09:16;17.10;71.20
70184;DHT22;57554;51.546;6.776;2022-09-09T00:11:55;17.20;71.10
70184;DHT22;57554;51.546;6.776;2022-09-09T00:14:31;17.20;70.90
70184;DHT22;57554;51.546;6.776;2022-09-09T00:17:04;17.20;70.90
70184;DHT22;57554;51.546;6.776;2022-09-09T00:19:44;17.20;70.50
70184;DHT22;57554;51.546;6.776;2022-09-09T00:22:18;17.20;70.50
70184;DHT22;57554;51.546;6.776;2022-09-09T00:24:54;17.20;70.30
70184;DHT22;57554;51.546;6.776;2022-09-09T00:27:43;17.20;70.20
70184;DHT22;57554;51.546;6.776;2022-09-09T00:30:19;17.20;70.10
70184;DHT22;57554;51.546;6.776;2022-09-09T00:32:49;17.20;70.10
70184;DHT22;57554;51.546;6.776;2022-09-09T00:35:25;17.20;70.10
70184;DHT22;57554;51.546;6.776;2022-09-09T00:37:54;17.10;70.10
70184;DHT22;57554;51.546;6.776;2022-09-09T00:40:27;17.10;70.20
70184;DHT22;57554;51.546;6.776;2022-09-09T00:43:10;17.10;70.30
70184;DHT22;57554;51.546;6.776;2022-09-09T00:51:13;17.00;70.50
70184;DHT22;57554;51.546;6.776;2022-09-09T00:59:52;16.90;71.20
70184;DHT22;57554;51.546;6.776;2022-09-09T01:02:56;16.90;71.30
70184;DHT22;57554;51.546;6.776;2022-09-09T01:08:01;16.90;71.50
70184;DHT22;57554;51.546;6.776;2022-09-09T01:13:15;16.80;71.70
70184;DHT22;57554;51.546;6.776;2022-09-09T01:15:44;16.80;71.80
70184;DHT22;57554;51.546;6.776;2022-09-09T01:18:14;16.80;71.90
70184;DHT22;57554;51.546;6.776;2022-09-09T01:21:04;16.80;72.00
70184;DHT22;57554;51.546;6.776;2022-09-09T01:26:39;16.80;72.20
70184;DHT22;57554;51.546;6.776;2022-09-09T01:29:17;16.70;72.30
70184;DHT22;57554;51.546;6.776;2022-09-09T01:31:58;16.70;72.30
70184;DHT22;57554;51.546;6.776;2022-09-09T01:34:26;16.70;72.40
70184;DHT22;57554;51.546;6.776;2022-09-09T01:39:25;16.70;72.40
70184;DHT22;57554;51.546;6.776;2022-09-09T01:41:52;16.70;72.50
70184;DHT22;57554;51.546;6.776;2022-09-09T01:44:19;16.70;72.50
70184;DHT22;57554;51.546;6.776;2022-09-09T01:46:45;16.70;72.50
70184;DHT22;57554;51.546;6.776;2022-09-09T01:49:11;16.70;72.60
70184;DHT22;57554;51.546;6.776;2022-09-09T01:51:37;16.70;72.70
70184;DHT22;57554;51.546;6.776;2022-09-09T01:54:04;16.60;72.80
70184;DHT22;57554;51.546;6.776;2022-09-09T02:05:20;16.60;72.90
70184;DHT22;57554;51.546;6.776;2022-09-09T02:07:49;16.70;72.90
70184;DHT22;57554;51.546;6.776;2022-09-09T02:10:23;16.70;72.90
70184;DHT22;57554;51.546;6.776;2022-09-09T02:13:11;16.70;73.00
70184;DHT22;57554;51.546;6.776;2022-09-09T02:16:08;16.70;73.10
70184;DHT22;57554;51.546;6.776;2022-09-09T02:21:26;16.80;73.00
70184;DHT22;57554;51.546;6.776;2022-09-09T02:23:54;16.80;72.90
70184;DHT22;57554;51.546;6.776;2022-09-09T02:26:22;16.80;73.00
70184;DHT22;57554;51.546;6.776;2022-09-09T02:28:50;16.80;73.00
70184;DHT22;57554;51.546;6.776;2022-09-09T02:31:21;16.80;73.10
70184;DHT22;57554;51.546;6.776;2022-09-09T02:33:52;16.80;73.20
70184;DHT22;57554;51.546;6.776;2022-09-09T02:36:21;16.80;73.20
70184;DHT22;57554;51.546;6.776;2022-09-09T02:38:48;16.80;73.30
70184;DHT22;57554;51.546;6.776;2022-09-09T02:41:18;16.80;73.20
70184;DHT22;57554;51.546;6.776;2022-09-09T02:43:45;16.80;73.20
70184;DHT22;57554;51.546;6.776;2022-09-09T02:52:11;16.80;73.10
70184;DHT22;57554;51.546;6.776;2022-09-09T02:54:41;16.90;73.10
70184;DHT22;57554;51.546;6.776;2022-09-09T02:59:38;16.90;73.00
70184;DHT22;57554;51.546;6.776;2022-09-09T03:02:04;16.90;72.90
70184;DHT22;57554;51.546;6.776;2022-09-09T03:04:30;16.90;72.80
70184;DHT22;57554;51.546;6.776;2022-09-09T03:06:57;16.90;72.80
70184;DHT22;57554;51.546;6.776;2022-09-09T03:09:23;16.90;72.70
70184;DHT22;57554;51.546;6.776;2022-09-09T03:11:50;16.90;72.70
70184;DHT22;57554;51.546;6.776;2022-09-09T03:14:15;16.90;72.60
70184;DHT22;57554;51.546;6.776;2022-09-09T03:16:41;16.90;72.60
70184;DHT22;57554;51.546;6.776;2022-09-09T03:19:08;16.90;72.60
70184;DHT22;57554;51.546;6.776;2022-09-09T03:21:34;16.90;72.60
70184;DHT22;57554;51.546;6.776;2022-09-09T03:24:00;16.90;72.60
70184;DHT22;57554;51.546;6.776;2022-09-09T03:26:29;16.90;72.60
70184;DHT22;57554;51.546;6.776;2022-09-09T03:28:55;16.90;72.70
70184;DHT22;57554;51.546;6.776;2022-09-09T03:31:20;16.90;72.70
70184;DHT22;57554;51.546;6.776;2022-09-09T03:33:46;16.90;72.60
70184;DHT22;57554;51.546;6.776;2022-09-09T03:36:12;16.90;72.60
70184;DHT22;57554;51.546;6.776;2022-09-09T03:38:38;16.90;72.70
70184;DHT22;57554;51.546;6.776;2022-09-09T03:41:04;16.90;72.70
70184;DHT22;57554;51.546;6.776;2022-09-09T03:43:33;16.90;72.80
70184;DHT22;57554;51.546;6.776;2022-09-09T03:45:58;17.00;72.80
70184;DHT22;57554;51.546;6.776;2022-09-09T03:48:25;17.00;72.80
70184;DHT22;57554;51.546;6.776;2022-09-09T03:50:53;17.00;72.80
70184;DHT22;57554;51.546;6.776;2022-09-09T03:53:21;17.00;72.80
70184;DHT22;57554;51.546;6.776;2022-09-09T03:55:50;17.00;72.70
70184;DHT22;57554;51.546;6.776;2022-09-09T03:58:20;17.00;72.70
70184;DHT22;57554;51.546;6.776;2022-09-09T04:01:01;17.00;72.60
70184;DHT22;57554;51.546;6.776;2022-09-09T04:03:28;17.00;72.60
70184;DHT22;57554;51.546;6.776;2022-09-09T04:05:55;17.00;72.50
70184;DHT22;57554;51.546;6.776;2022-09-09T04:08:22;17.10;72.50
70184;DHT22;57554;51.546;6.776;2022-09-09T04:10:48;17.00;72.50
70184;DHT22;57554;51.546;6.776;2022-09-09T04:13:15;17.00;72.60
70184;DHT22;57554;51.546;6.776;2022-09-09T04:15:42;17.00;72.60
70184;DHT22;57554;51.546;6.776;2022-09-09T04:18:07;17.00;72.60
70184;DHT22;57554;51.546;6.776;2022-09-09T04:20:33;17.00;72.50
70184;DHT22;57554;51.546;6.776;2022-09-09T04:22:59;17.00;72.60
70184;DHT22;57554;51.546;6.776;2022-09-09T04:25:25;17.00;72.70
70184;DHT22;57554;51.546;6.776;2022-09-09T04:27:55;17.00;72.80
70184;DHT22;57554;51.546;6.776;2022-09-09T04:30:20;17.10;72.80
70184;DHT22;57554;51.546;6.776;2022-09-09T04:32:46;17.10;72.80
70184;DHT22;57554;51.546;6.776;2022-09-09T04:35:12;17.10;72.90
70184;DHT22;57554;51.546;6.776;2022-09-09T04:37:37;17.10;73.00
70184;DHT22;57554;51.546;6.776;2022-09-09T04:40:03;17.10;73.00
70184;DHT22;57554;51.546;6.776;2022-09-09T04:42:29;17.10;73.00
70184;DHT22;57554;51.546;6.776;2022-09-09T04:44:54;17.10;72.90
70184;DHT22;57554;51.546;6.776;2022-09-09T04:47:20;17.20;72.90
70184;DHT22;57554;51.546;6.776;2022-09-09T04:49:46;17.20;73.00
70184;DHT22;57554;51.546;6.776;2022-09-09T04:52:12;17.20;72.90
70184;DHT22;57554;51.546;6.776;2022-09-09T04:54:38;17.20;73.00
70184;DHT22;57554;51.546;6.776;2022-09-09T04:57:04;17.20;73.00
70184;DHT22;57554;51.546;6.776;2022-09-09T04:59:30;17.30;73.00
70184;DHT22;57554;51.546;6.776;2022-09-09T05:01:56;17.30;73.00
70184;DHT22;57554;51.546;6.776;2022-09-09T05:04:21;17.30;73.00
70184;DHT22;57554;51.546;6.776;2022-09-09T05:06:47;17.30;72.90
70184;DHT22;57554;51.546;6.776;2022-09-09T05:09:12;17.30;72.90
70184;DHT22;57554;51.546;6.776;2022-09-09T05:11:38;17.40;72.90
70184;DHT22;57554;51.546;6.776;2022-09-09T05:14:04;17.40;72.90
70184;DHT22;57554;51.546;6.776;2022-09-09T05:16:30;17.40;72.80
70184;DHT22;57554;51.546;6.776;2022-09-09T05:18:57;17.40;72.80
70184;DHT22;57554;51.546;6.776;2022-09-09T05:21:24;17.40;72.70
70184;DHT22;57554;51.546;6.776;2022-09-09T05:23:52;17.50;72.60
70184;DHT22;57554;51.546;6.776;2022-09-09T05:26:20;17.50;72.60
70184;DHT22;57554;51.546;6.776;2022-09-09T05:28:46;17.50;72.60
70184;DHT22;57554;51.546;6.776;2022-09-09T05:31:14;17.50;72.50
70184;DHT22;57554;51.546;6.776;2022-09-09T05:33:41;17.50;72.40
70184;DHT22;57554;51.546;6.776;2022-09-09T05:36:10;17.50;72.40
70184;DHT22;57554;51.546;6.776;2022-09-09T05:38:38;17.60;72.30
70184;DHT22;57554;51.546;6.776;2022-09-09T05:41:04;17.60;72.30
70184;DHT22;57554;51.546;6.776;2022-09-09T05:43:30;17.60;72.20
70184;DHT22;57554;51.546;6.776;2022-09-09T05:46:05;17.60;72.10
70184;DHT22;57554;51.546;6.776;2022-09-09T05:48:32;17.60;72.00
70184;DHT22;57554;51.546;6.776;2022-09-09T05:50:58;17.60;71.90
70184;DHT22;57554;51.546;6.776;2022-09-09T05:53:25;17.60;71.80
70184;DHT22;57554;51.546;6.776;2022-09-09T05:55:57;17.60;71.70
70184;DHT22;57554;51.546;6.776;2022-09-09T05:58:23;17.60;71.80
70184;DHT22;57554;51.546;6.776;2022-09-09T06:00:49;17.70;71.70
70184;DHT22;57554;51.546;6.776;2022-09-09T06:03:15;17.70;71.60
70184;DHT22;57554;51.546;6.776;2022-09-09T06:05:42;17.70;71.60
70184;DHT22;57554;51.546;6.776;2022-09-09T06:08:07;17.70;71.40
70184;DHT22;57554;51.546;6.776;2022-09-09T06:10:33;17.70;71.40
70184;DHT22;57554;51.546;6.776;2022-09-09T06:12:59;17.70;71.40
70184;DHT22;57554;51.546;6.776;2022-09-09T06:15:25;17.70;71.40
70184;DHT22;57554;51.546;6.776;2022-09-09T06:17:55;17.70;71.30
70184;DHT22;57554;51.546;6.776;2022-09-09T06:20:22;17.80;71.30
70184;DHT22;57554;51.546;6.776;2022-09-09T06:22:48;17.80;71.20
70184;DHT22;57554;51.546;6.776;2022-09-09T06:25:14;17.80;71.10
70184;DHT22;57554;51.546;6.776;2022-09-09T06:27:39;17.90;71.10
70184;DHT22;57554;51.546;6.776;2022-09-09T06:30:06;17.90;71.10
70184;DHT22;57554;51.546;6.776;2022-09-09T06:32:33;17.90;70.90
70184;DHT22;57554;51.546;6.776;2022-09-09T06:35:01;18.00;70.80
70184;DHT22;57554;51.546;6.776;2022-09-09T06:37:27;18.00;70.70
70184;DHT22;57554;51.546;6.776;2022-09-09T06:39:52;18.00;70.60
70184;DHT22;57554;51.546;6.776;2022-09-09T06:42:19;18.10;70.50
70184;DHT22;57554;51.546;6.776;2022-09-09T06:44:45;18.20;70.50
70184;DHT22;57554;51.546;6.776;2022-09-09T06:47:11;18.30;70.40
70184;DHT22;57554;51.546;6.776;2022-09-09T06:49:36;18.30;70.00
70184;DHT22;57554;51.546;6.776;2022-09-09T06:52:02;18.30;69.50
70184;DHT22;57554;51.546;6.776;2022-09-09T06:54:27;18.20;69.20
70184;DHT22;57554;51.546;6.776;2022-09-09T06:56:53;18.20;68.70
70184;DHT22;57554;51.546;6.776;2022-09-09T06:59:19;18.20;68.60
70184;DHT22;57554;51.546;6.776;2022-09-09T07:01:45;18.20;68.50
70184;DHT22;57554;51.546;6.776;2022-09-09T07:04:12;18.20;68.50
70184;DHT22;57554;51.546;6.776;2022-09-09T07:06:42;18.20;68.60
70184;DHT22;57554;51.546;6.776;2022-09-09T07:09:10;18.20;68.90
70184;DHT22;57554;51.546;6.776;2022-09-09T07:11:44;18.40;68.70
70184;DHT22;57554;51.546;6.776;2022-09-09T07:14:10;18.60;68.50
70184;DHT22;57554;51.546;6.776;2022-09-09T07:16:39;18.70;67.30
70184;DHT22;57554;51.546;6.776;2022-09-09T07:19:05;18.80;67.00
70184;DHT22;57554;51.546;6.776;2022-09-09T07:21:32;18.90;66.80
70184;DHT22;57554;51.546;6.776;2022-09-09T07:23:57;18.90;66.00
70184;DHT22;57554;51.546;6.776;2022-09-09T07:26:25;18.90;65.90
70184;DHT22;57554;51.546;6.776;2022-09-09T07:28:52;18.90;65.90
70184;DHT22;57554;51.546;6.776;2022-09-09T07:31:27;18.90;65.80
70184;DHT22;57554;51.546;6.776;2022-09-09T07:33:53;19.10;65.70
70184;DHT22;57554;51.546;6.776;2022-09-09T07:36:20;19.30;65.30
70184;DHT22;57554;51.546;6.776;2022-09-09T07:38:53;19.50;64.30
70184;DHT22;57554;51.546;6.776;2022-09-09T07:41:23;19.40;63.60
70184;DHT22;57554;51.546;6.776;2022-09-09T07:43:49;19.40;64.20
70184;DHT22;57554;51.546;6.776;2022-09-09T07:46:17;19.50;63.90
70184;DHT22;57554;51.546;6.776;2022-09-09T07:48:47;19.50;63.30
70184;DHT22;57554;51.546;6.776;2022-09-09T07:51:17;19.50;63.10
70184;DHT22;57554;51.546;6.776;2022-09-09T07:53:45;19.60;62.90
70184;DHT22;57554;51.546;6.776;2022-09-09T07:56:14;19.60;62.90
70184;DHT22;57554;51.546;6.776;2022-09-09T07:58:42;19.60;62.70
70184;DHT22;57554;51.546;6.776;2022-09-09T08:01:15;19.70;62.30
70184;DHT22;57554;51.546;6.776;2022-09-09T08:03:44;19.80;61.80
70184;DHT22;57554;51.546;6.776;2022-09-09T08:06:10;19.80;61.60
70184;DHT22;57554;51.546;6.776;2022-09-09T08:08:38;19.90;61.00
70184;DHT22;57554;51.546;6.776;2022-09-09T08:11:07;19.90;61.10
70184;DHT22;57554;51.546;6.776;2022-09-09T08:13:35;19.90;60.60
70184;DHT22;57554;51.546;6.776;2022-09-09T08:16:12;19.90;60.80
70184;DHT22;57554;51.546;6.776;2022-09-09T08:18:38;20.00;60.60
70184;DHT22;57554;51.546;6.776;2022-09-09T08:21:06;19.90;58.50
70184;DHT22;57554;51.546;6.776;2022-09-09T08:23:32;19.70;58.00
70184;DHT22;57554;51.546;6.776;2022-09-09T08:26:04;19.60;59.20
70184;DHT22;57554;51.546;6.776;2022-09-09T08:28:30;19.50;59.50
70184;DHT22;57554;51.546;6.776;2022-09-09T08:31:04;19.50;59.60
70184;DHT22;57554;51.546;6.776;2022-09-09T08:33:29;19.50;59.30
70184;DHT22;57554;51.546;6.776;2022-09-09T08:35:55;19.40;59.30
70184;DHT22;57554;51.546;6.776;2022-09-09T08:38:21;19.40;59.50
70184;DHT22;57554;51.546;6.776;2022-09-09T08:40:48;19.50;59.80
70184;DHT22;57554;51.546;6.776;2022-09-09T08:43:17;19.70;59.80
70184;DHT22;57554;51.546;6.776;2022-09-09T08:45:57;20.00;59.20
70184;DHT22;57554;51.546;6.776;2022-09-09T08:48:54;20.30;58.90
70184;DHT22;57554;51.546;6.776;2022-09-09T08:51:25;20.60;58.30
70184;DHT22;57554;51.546;6.776;2022-09-09T08:53:52;20.90;56.50
70184;DHT22;57554;51.546;6.776;2022-09-09T08:56:24;21.00;55.70
70184;DHT22;57554;51.546;6.776;2022-09-09T08:58:55;21.10;55.50
70184;DHT22;57554;51.546;6.776;2022-09-09T09:01:40;21.20;55.00
70184;DHT22;57554;51.546;6.776;2022-09-09T09:12:41;21.40;53.50
70184;DHT22;57554;51.546;6.776;2022-09-09T09:15:18;21.20;54.00
70184;DHT22;57554;51.546;6.776;2022-09-09T09:17:45;21.20;54.30
70184;DHT22;57554;51.546;6.776;2022-09-09T09:20:14;21.10;54.10
70184;DHT22;57554;51.546;6.776;2022-09-09T09:22:45;21.00;54.30
70184;DHT22;57554;51.546;6.776;2022-09-09T09:30:40;20.70;54.60
70184;DHT22;57554;51.546;6.776;2022-09-09T09:33:38;20.60;55.40
70184;DHT22;57554;51.546;6.776;2022-09-09T09:36:08;20.60;55.20
70184;DHT22;57554;51.546;6.776;2022-09-09T09:38:35;20.60;55.40
70184;DHT22;57554;51.546;6.776;2022-09-09T09:41:02;20.50;55.20
70184;DHT22;57554;51.546;6.776;2022-09-09T09:43:35;20.50;55.40
70184;DHT22;57554;51.546;6.776;2022-09-09T09:46:04;20.60;55.40
70184;DHT22;57554;51.546;6.776;2022-09-09T09:48:30;20.50;54.90
70184;DHT22;57554;51.546;6.776;2022-09-09T09:51:00;20.50;54.70
70184;DHT22;57554;51.546;6.776;2022-09-09T09:53:33;20.40;55.10
70184;DHT22;57554;51.546;6.776;2022-09-09T09:56:05;20.30;55.00
70184;DHT22;57554;51.546;6.776;2022-09-09T09:58:37;20.20;55.20
70184;DHT22;57554;51.546;6.776;2022-09-09T10:01:32;20.10;55.40
70184;DHT22;57554;51.546;6.776;2022-09-09T10:04:15;20.10;55.40
70184;DHT22;57554;51.546;6.776;2022-09-09T10:06:42;20.10;55.00
70184;DHT22;57554;51.546;6.776;2022-09-09T10:17:25;21.00;55.60
70184;DHT22;57554;51.546;6.776;2022-09-09T10:20:19;21.40;54.10
70184;DHT22;57554;51.546;6.776;2022-09-09T10:22:51;21.60;53.10
70184;DHT22;57554;51.546;6.776;2022-09-09T10:33:30;21.70;51.70
70184;DHT22;57554;51.546;6.776;2022-09-09T10:36:10;21.70;51.50
70184;DHT22;57554;51.546;6.776;2022-09-09T10:38:42;21.70;51.50
70184;DHT22;57554;51.546;6.776;2022-09-09T10:44:10;21.40;51.30
70184;DHT22;57554;51.546;6.776;2022-09-09T10:57:48;20.80;52.30
70184;DHT22;57554;51.546;6.776;2022-09-09T11:00:21;20.60;52.00
70184;DHT22;57554;51.546;6.776;2022-09-09T11:02:59;20.50;52.40
70184;DHT22;57554;51.546;6.776;2022-09-09T11:05:36;20.50;52.50
70184;DHT22;57554;51.546;6.776;2022-09-09T11:16:25;20.90;52.20
70184;DHT22;57554;51.546;6.776;2022-09-09T11:19:09;21.00;52.70
70184;DHT22;57554;51.546;6.776;2022-09-09T11:21:42;21.00;52.30
70184;DHT22;57554;51.546;6.776;2022-09-09T11:24:20;21.10;52.10
70184;DHT22;57554;51.546;6.776;2022-09-09T11:26:53;21.00;51.80
70184;DHT22;57554;51.546;6.776;2022-09-09T11:29:37;21.00;51.50
70184;DHT22;57554;51.546;6.776;2022-09-09T11:35:09;20.70;52.30
70184;DHT22;57554;51.546;6.776;2022-09-09T11:40:23;20.70;52.50
70184;DHT22;57554;51.546;6.776;2022-09-09T11:42:49;20.70;52.30
70184;DHT22;57554;51.546;6.776;2022-09-09T11:45:28;20.70;52.70
70184;DHT22;57554;51.546;6.776;2022-09-09T11:47:56;20.70;53.60
70184;DHT22;57554;51.546;6.776;2022-09-09T11:52:49;21.00;52.80
70184;DHT22;57554;51.546;6.776;2022-09-09T11:58:01;21.10;52.80
70184;DHT22;57554;51.546;6.776;2022-09-09T12:00:36;21.10;51.80
70184;DHT22;57554;51.546;6.776;2022-09-09T12:03:09;21.00;51.20
70184;DHT22;57554;51.546;6.776;2022-09-09T12:05:52;20.90;51.40
70184;DHT22;57554;51.546;6.776;2022-09-09T12:08:27;20.90;51.80
70184;DHT22;57554;51.546;6.776;2022-09-09T12:10:58;20.90;51.80
70184;DHT22;57554;51.546;6.776;2022-09-09T12:13:28;20.90;51.90
70184;DHT22;57554;51.546;6.776;2022-09-09T12:15:58;20.80;52.40
70184;DHT22;57554;51.546;6.776;2022-09-09T12:23:53;20.90;52.20
70184;DHT22;57554;51.546;6.776;2022-09-09T12:32:13;20.90;52.40
70184;DHT22;57554;51.546;6.776;2022-09-09T12:34:41;20.90;52.60
70184;DHT22;57554;51.546;6.776;2022-09-09T12:37:37;20.90;52.90
70184;DHT22;57554;51.546;6.776;2022-09-09T12:40:20;20.90;52.70
70184;DHT22;57554;51.546;6.776;2022-09-09T12:42:45;20.80;52.60
70184;DHT22;57554;51.546;6.776;2022-09-09T12:45:20;20.70;54.30
70184;DHT22;57554;51.546;6.776;2022-09-09T12:50:27;20.30;57.10
70184;DHT22;57554;51.546;6.776;2022-09-09T12:52:56;20.30;57.30
70184;DHT22;57554;51.546;6.776;2022-09-09T12:55:32;20.20;57.00
70184;DHT22;57554;51.546;6.776;2022-09-09T12:58:00;20.20;57.20
70184;DHT22;57554;51.546;6.776;2022-09-09T13:00:29;20.00;58.00
70184;DHT22;57554;51.546;6.776;2022-09-09T13:02:57;20.00;59.30
70184;DHT22;57554;51.546;6.776;2022-09-09T13:05:33;19.90;61.20
70184;DHT22;57554;51.546;6.776;2022-09-09T13:08:04;19.90;62.10
70184;DHT22;57554;51.546;6.776;2022-09-09T13:10:37;19.90;61.70
70184;DHT22;57554;51.546;6.776;2022-09-09T13:13:15;19.90;61.20
70184;DHT22;57554;51.546;6.776;2022-09-09T13:15:52;19.80;61.00
70184;DHT22;57554;51.546;6.776;2022-09-09T13:18:21;19.70;61.10
70184;DHT22;57554;51.546;6.776;2022-09-09T13:20:48;19.70;61.30
70184;DHT22;57554;51.546;6.776;2022-09-09T13:23:15;19.70;62.10
70184;DHT22;57554;51.546;6.776;2022-09-09T13:25:53;19.70;62.50
70184;DHT22;57554;51.546;6.776;2022-09-09T13:28:25;19.80;62.40
70184;DHT22;57554;51.546;6.776;2022-09-09T13:31:18;19.90;62.70
70184;DHT22;57554;51.546;6.776;2022-09-09T13:33:44;20.00;62.60
70184;DHT22;57554;51.546;6.776;2022-09-09T13:36:11;20.20;62.80
70184;DHT22;57554;51.546;6.776;2022-09-09T13:38:52;20.50;62.40
70184;DHT22;57554;51.546;6.776;2022-09-09T13:41:23;20.70;61.30
70184;DHT22;57554;51.546;6.776;2022-09-09T13:43:49;20.80;60.90
70184;DHT22;57554;51.546;6.776;2022-09-09T13:46:25;21.10;60.80
70184;DHT22;57554;51.546;6.776;2022-09-09T13:49:00;21.20;60.60
70184;DHT22;57554;51.546;6.776;2022-09-09T13:51:38;21.40;60.10
70184;DHT22;57554;51.546;6.776;2022-09-09T13:54:05;21.60;59.40
70184;DHT22;57554;51.546;6.776;2022-09-09T13:56:33;21.70;58.80
70184;DHT22;57554;51.546;6.776;2022-09-09T13:58:58;21.80;58.60
70184;DHT22;57554;51.546;6.776;2022-09-09T14:01:24;21.80;56.50
70184;DHT22;57554;51.546;6.776;2022-09-09T14:03:49;21.70;56.30
70184;DHT22;57554;51.546;6.776;2022-09-09T14:06:16;21.50;56.80
70184;DHT22;57554;51.546;6.776;2022-09-09T14:08:44;21.30;56.30
70184;DHT22;57554;51.546;6.776;2022-09-09T14:11:12;21.10;56.70
70184;DHT22;57554;51.546;6.776;2022-09-09T14:13:38;21.00;56.60
70184;DHT22;57554;51.546;6.776;2022-09-09T14:16:04;20.80;56.60
70184;DHT22;57554;51.546;6.776;2022-09-09T14:18:29;20.70;57.00
70184;DHT22;57554;51.546;6.776;2022-09-09T14:20:55;20.60;56.70
70184;DHT22;57554;51.546;6.776;2022-09-09T14:23:22;20.50;56.50
70184;DHT22;57554;51.546;6.776;2022-09-09T14:25:48;20.40;57.00
70184;DHT22;57554;51.546;6.776;2022-09-09T14:28:14;20.40;57.20
70184;DHT22;57554;51.546;6.776;2022-09-09T14:30:41;20.30;57.30
70184;DHT22;57554;51.546;6.776;2022-09-09T14:33:09;20.30;57.70
70184;DHT22;57554;51.546;6.776;2022-09-09T14:35:35;20.20;58.30
70184;DHT22;57554;51.546;6.776;2022-09-09T14:38:02;20.20;58.40
70184;DHT22;57554;51.546;6.776;2022-09-09T14:40:28;20.20;58.50
70184;DHT22;57554;51.546;6.776;2022-09-09T14:42:54;20.10;56.80
70184;DHT22;57554;51.546;6.776;2022-09-09T14:45:21;19.90;57.70
70184;DHT22;57554;51.546;6.776;2022-09-09T14:47:46;19.60;61.60
70184;DHT22;57554;51.546;6.776;2022-09-09T14:50:12;19.20;63.30
70184;DHT22;57554;51.546;6.776;2022-09-09T14:52:39;18.70;64.80
70184;DHT22;57554;51.546;6.776;2022-09-09T14:55:05;18.20;65.80
70184;DHT22;57554;51.546;6.776;2022-09-09T14:57:31;17.80;66.90
70184;DHT22;57554;51.546;6.776;2022-09-09T14:59:57;17.50;67.80
70184;DHT22;57554;51.546;6.776;2022-09-09T15:02:22;17.40;68.40
70184;DHT22;57554;51.546;6.776;2022-09-09T15:04:48;17.20;69.00
70184;DHT22;57554;51.546;6.776;2022-09-09T15:07:15;17.10;69.80
70184;DHT22;57554;51.546;6.776;2022-09-09T15:09:42;17.00;70.40
70184;DHT22;57554;51.546;6.776;2022-09-09T15:12:07;16.90;70.90
70184;DHT22;57554;51.546;6.776;2022-09-09T15:14:33;16.90;71.10
70184;DHT22;57554;51.546;6.776;2022-09-09T15:17:00;16.90;71.30
70184;DHT22;57554;51.546;6.776;2022-09-09T15:19:26;16.90;71.70
70184;DHT22;57554;51.546;6.776;2022-09-09T15:21:52;17.00;71.80
70184;DHT22;57554;51.546;6.776;2022-09-09T15:24:18;17.00;72.00
70184;DHT22;57554;51.546;6.776;2022-09-09T15:26:43;17.10;72.20
70184;DHT22;57554;51.546;6.776;2022-09-09T15:29:09;17.20;72.30
70184;DHT22;57554;51.546;6.776;2022-09-09T15:31:35;17.40;72.30
70184;DHT22;57554;51.546;6.776;2022-09-09T15:34:03;17.60;72.20
70184;DHT22;57554;51.546;6.776;2022-09-09T15:36:34;17.70;71.90
70184;DHT22;57554;51.546;6.776;2022-09-09T15:39:01;17.90;71.50
70184;DHT22;57554;51.546;6.776;2022-09-09T15:41:28;18.00;71.30
70184;DHT22;57554;51.546;6.776;2022-09-09T15:43:55;18.20;71.20
70184;DHT22;57554;51.546;6.776;2022-09-09T15:46:37;18.30;71.40
70184;DHT22;57554;51.546;6.776;2022-09-09T15:49:06;18.50;71.50
70184;DHT22;57554;51.546;6.776;2022-09-09T15:51:32;18.80;71.60
70184;DHT22;57554;51.546;6.776;2022-09-09T15:53:59;19.00;71.60
70184;DHT22;57554;51.546;6.776;2022-09-09T15:56:29;19.30;70.90
70184;DHT22;57554;51.546;6.776;2022-09-09T15:58:59;19.40;70.80
70184;DHT22;57554;51.546;6.776;2022-09-09T16:01:26;19.60;70.80
70184;DHT22;57554;51.546;6.776;2022-09-09T16:03:52;19.80;70.20
70184;DHT22;57554;51.546;6.776;2022-09-09T16:06:20;19.90;69.70
70184;DHT22;57554;51.546;6.776;2022-09-09T16:08:49;20.00;69.50
70184;DHT22;57554;51.546;6.776;2022-09-09T16:11:27;20.00;68.80
70184;DHT22;57554;51.546;6.776;2022-09-09T16:13:54;20.00;68.70
70184;DHT22;57554;51.546;6.776;2022-09-09T16:16:25;20.00;68.60
70184;DHT22;57554;51.546;6.776;2022-09-09T16:18:52;19.90;68.40
70184;DHT22;57554;51.546;6.776;2022-09-09T16:21:26;19.90;68.30
70184;DHT22;57554;51.546;6.776;2022-09-09T16:23:55;19.90;68.20
70184;DHT22;57554;51.546;6.776;2022-09-09T16:26:23;19.80;68.10
70184;DHT22;57554;51.546;6.776;2022-09-09T16:28:49;19.70;67.90
70184;DHT22;57554;51.546;6.776;2022-09-09T16:31:19;19.70;67.80
70184;DHT22;57554;51.546;6.776;2022-09-09T16:33:46;19.60;67.80
70184;DHT22;57554;51.546;6.776;2022-09-09T16:36:14;19.50;67.90
70184;DHT22;57554;51.546;6.776;2022-09-09T16:38:41;19.50;67.90
70184;DHT22;57554;51.546;6.776;2022-09-09T16:41:09;19.40;67.80
70184;DHT22;57554;51.546;6.776;2022-09-09T16:43:35;19.40;68.00
70184;DHT22;57554;51.546;6.776;2022-09-09T16:46:18;19.40;67.90
70184;DHT22;57554;51.546;6.776;2022-09-09T16:48:45;19.30;67.60
70184;DHT22;57554;51.546;6.776;2022-09-09T16:51:21;19.30;67.60
70184;DHT22;57554;51.546;6.776;2022-09-09T16:53:48;19.30;67.60
70184;DHT22;57554;51.546;6.776;2022-09-09T16:56:17;19.30;67.50
70184;DHT22;57554;51.546;6.776;2022-09-09T16:58:49;19.20;67.60
70184;DHT22;57554;51.546;6.776;2022-09-09T17:01:15;19.20;67.60
70184;DHT22;57554;51.546;6.776;2022-09-09T17:03:41;19.20;67.70
70184;DHT22;57554;51.546;6.776;2022-09-09T17:06:11;19.20;67.70
70184;DHT22;57554;51.546;6.776;2022-09-09T17:08:37;19.20;67.80
70184;DHT22;57554;51.546;6.776;2022-09-09T17:11:14;19.20;67.80
70184;DHT22;57554;51.546;6.776;2022-09-09T17:13:42;19.10;67.90
70184;DHT22;57554;51.546;6.776;2022-09-09T17:16:07;19.10;68.00
70184;DHT22;57554;51.546;6.776;2022-09-09T17:18:34;19.10;68.10
70184;DHT22;57554;51.546;6.776;2022-09-09T17:21:04;19.10;68.30
70184;DHT22;57554;51.546;6.776;2022-09-09T17:23:32;19.00;68.40
70184;DHT22;57554;51.546;6.776;2022-09-09T17:25:59;19.00;68.40
70184;DHT22;57554;51.546;6.776;2022-09-09T17:28:26;19.00;68.50
70184;DHT22;57554;51.546;6.776;2022-09-09T17:30:57;19.00;68.70
70184;DHT22;57554;51.546;6.776;2022-09-09T17:33:23;18.90;68.80
70184;DHT22;57554;51.546;6.776;2022-09-09T17:35:51;18.90;68.90
70184;DHT22;57554;51.546;6.776;2022-09-09T17:38:17;18.90;69.00
70184;DHT22;57554;51.546;6.776;2022-09-09T17:40:42;18.80;69.10
70184;DHT22;57554;51.546;6.776;2022-09-09T17:43:08;18.80;69.20
70184;DHT22;57554;51.546;6.776;2022-09-09T17:45:34;18.80;69.20
70184;DHT22;57554;51.546;6.776;2022-09-09T17:47:59;18.80;69.20